createdAt,value
2022-12-05T00:01:56.287Z,-0.76
2022-12-05T00:04:30.601Z,-0.74
2022-12-05T00:07:04.975Z,-0.74
2022-12-05T01:58:19.696Z,-0.80
2022-12-05T02:00:52.427Z,-0.80
2022-12-05T02:03:25.681Z,-0.83
2022-12-05T02:06:00.602Z,-0.81
2022-12-05T02:08:33.423Z,-0.80
2022-12-05T02:11:08.370Z,-0.79
2022-12-05T02:13:57.520Z,-0.81
2022-12-05T02:16:44.771Z,-0.82
2022-12-05T02:19:53.181Z,-0.82
2022-12-05T02:22:48.370Z,-0.80
2022-12-05T02:25:46.530Z,-0.80
2022-12-05T02:28:59.032Z,-0.81
2022-12-05T02:31:37.762Z,-0.80
2022-12-05T02:34:18.320Z,-0.77
2022-12-05T02:36:58.891Z,-0.72
2022-12-05T02:39:39.530Z,-0.77
2022-12-05T02:42:20.808Z,-0.76
2022-12-05T02:44:58.829Z,-0.65
2022-12-05T02:47:36.591Z,-0.51
2022-12-05T02:50:13.950Z,-0.44
2022-12-05T02:52:48.200Z,-0.40
2022-12-05T02:55:24.881Z,-0.45
2022-12-05T02:58:00.830Z,-0.43
2022-12-05T03:00:33.661Z,-0.43
2022-12-05T03:03:14.430Z,-0.46
2022-12-05T03:05:53.345Z,-0.56
2022-12-05T03:08:31.358Z,-0.62
2022-12-05T03:11:11.950Z,-0.64
2022-12-05T03:13:51.099Z,-0.71
2022-12-05T03:16:29.891Z,-0.74
2022-12-05T03:19:08.673Z,-0.77
2022-12-05T03:21:47.221Z,-0.74
2022-12-05T03:24:20.300Z,-0.75
2022-12-05T03:27:03.156Z,-0.75
2022-12-05T03:29:42.191Z,-0.75
2022-12-05T03:32:23.820Z,-0.74
2022-12-05T03:35:05.890Z,-0.63
2022-12-05T03:37:47.203Z,-0.66
2022-12-05T03:40:35.219Z,-0.73
2022-12-05T03:43:13.718Z,-0.73
2022-12-05T03:45:55.039Z,-0.70
2022-12-05T03:48:33.869Z,-0.67
2022-12-05T03:51:09.161Z,-0.67
2022-12-05T03:53:46.869Z,-0.68
2022-12-05T03:56:25.441Z,-0.70
2022-12-05T03:59:01.490Z,-0.67
2022-12-05T04:01:36.549Z,-0.65
2022-12-05T04:04:17.832Z,-0.65
2022-12-05T04:06:55.449Z,-0.66
2022-12-05T04:09:31.083Z,-0.68
2022-12-05T04:12:08.409Z,-0.66
2022-12-05T04:14:45.190Z,-0.56
2022-12-05T04:17:24.789Z,-0.53
2022-12-05T04:20:20.256Z,-0.62
2022-12-05T04:22:53.372Z,-0.63
2022-12-05T04:25:35.421Z,-0.65
2022-12-05T04:28:21.860Z,-0.66
2022-12-05T04:31:05.649Z,-0.55
2022-12-05T04:33:46.671Z,-0.54
2022-12-05T04:36:22.979Z,-0.61
2022-12-05T04:39:02.278Z,-0.62
2022-12-05T04:41:39.118Z,-0.66
2022-12-05T04:44:14.589Z,-0.59
2022-12-05T04:46:50.294Z,-0.52
2022-12-05T04:49:28.493Z,-0.48
2022-12-05T04:52:05.987Z,-0.37
2022-12-05T04:54:44.749Z,-0.22
2022-12-05T04:57:24.143Z,-0.22
2022-12-05T04:59:57.929Z,-0.19
2022-12-05T05:02:37.393Z,-0.09
2022-12-05T05:05:14.291Z,-0.06
2022-12-05T05:07:52.065Z,-0.24
2022-12-05T05:10:29.102Z,-0.23
2022-12-05T05:13:01.498Z,-0.24
2022-12-05T05:15:34.612Z,-0.23
2022-12-05T05:18:07.800Z,-0.24
2022-12-05T05:20:40.719Z,-0.23
2022-12-05T05:23:14.048Z,-0.20
2022-12-05T05:25:46.751Z,-0.22
2022-12-05T05:28:19.550Z,-0.13
2022-12-05T05:30:52.554Z,-0.33
2022-12-05T05:33:25.820Z,-0.38
2022-12-05T05:35:59.072Z,-0.41
2022-12-05T05:38:31.478Z,-0.38
2022-12-05T05:41:04.529Z,-0.39
2022-12-05T05:43:38.549Z,-0.33
2022-12-05T05:46:11.630Z,-0.33
2022-12-05T05:48:44.633Z,-0.33
2022-12-05T05:51:19.840Z,-0.34
2022-12-05T05:53:52.460Z,-0.36
2022-12-05T05:56:27.631Z,-0.38
2022-12-05T05:59:02.639Z,-0.24
2022-12-05T06:01:35.515Z,-0.37
2022-12-05T06:04:08.227Z,-0.39
2022-12-05T06:06:42.098Z,-0.38
2022-12-05T06:09:12.890Z,-0.40
2022-12-05T06:11:46.114Z,-0.45
2022-12-05T06:14:18.729Z,-0.30
2022-12-05T06:16:51.564Z,-0.32
2022-12-05T06:19:24.438Z,-0.31
2022-12-05T06:21:57.135Z,-0.24
2022-12-05T06:24:30.249Z,-0.26
2022-12-05T06:27:02.830Z,-0.31
2022-12-05T06:29:35.843Z,-0.35
2022-12-05T06:32:09.764Z,-0.33
2022-12-05T06:34:42.959Z,-0.35
2022-12-05T06:37:15.417Z,-0.34
2022-12-05T06:39:48.814Z,-0.37
2022-12-05T06:42:23.928Z,-0.46
2022-12-05T06:44:56.539Z,-0.44
2022-12-05T06:47:29.103Z,-0.41
2022-12-05T06:50:02.180Z,-0.38
2022-12-05T06:52:34.938Z,-0.39
2022-12-05T06:55:08.819Z,-0.38
2022-12-05T06:57:41.780Z,-0.39
2022-12-05T07:00:34.166Z,-0.40
2022-12-05T07:03:06.767Z,-0.39
2022-12-05T07:05:39.490Z,-0.40
2022-12-05T07:08:12.211Z,-0.38
2022-12-05T07:10:52.017Z,-0.37
2022-12-05T07:13:24.690Z,-0.33
2022-12-05T07:15:59.505Z,-0.33
2022-12-05T07:18:32.341Z,-0.31
2022-12-05T07:21:12.311Z,-0.28
2022-12-05T07:23:48.501Z,-0.26
2022-12-05T07:26:22.756Z,-0.28
2022-12-05T07:28:59.551Z,-0.21
2022-12-05T07:31:34.430Z,-0.21
2022-12-05T07:34:07.476Z,-0.21
2022-12-05T07:36:40.999Z,-0.17
2022-12-05T07:39:13.770Z,-0.19
2022-12-05T07:41:46.510Z,-0.17
2022-12-05T07:44:21.981Z,-0.14
2022-12-05T07:46:54.824Z,-0.14
2022-12-05T07:49:27.779Z,-0.12
2022-12-05T07:52:00.633Z,-0.14
2022-12-05T07:54:37.230Z,-0.10
2022-12-05T07:57:10.028Z,-0.10
2022-12-05T07:59:42.659Z,-0.05
2022-12-05T08:02:16.253Z,-0.04
2022-12-05T08:04:49.030Z,-0.01
2022-12-05T08:07:21.869Z,0.03
2022-12-05T08:09:54.430Z,0.01
2022-12-05T08:12:27.869Z,0.06
2022-12-05T08:15:00.519Z,0.06
2022-12-05T08:17:35.353Z,0.10
2022-12-05T08:20:10.489Z,0.10
2022-12-05T08:22:44.242Z,0.07
2022-12-05T08:25:17.039Z,0.11
2022-12-05T08:27:50.009Z,0.15
2022-12-05T08:30:22.899Z,0.17
2022-12-05T08:32:55.647Z,0.19
2022-12-05T08:35:28.550Z,0.22
2022-12-05T08:38:01.779Z,0.28
2022-12-05T08:40:34.620Z,0.35
2022-12-05T08:43:07.660Z,0.39
2022-12-05T08:45:40.454Z,0.44
2022-12-05T08:48:13.190Z,0.52
2022-12-05T08:50:46.620Z,0.58
2022-12-05T08:53:19.770Z,0.65
2022-12-05T08:55:52.668Z,0.67
2022-12-05T08:58:25.190Z,0.71
2022-12-05T09:01:04.996Z,0.79
2022-12-05T09:03:40.095Z,0.79
2022-12-05T09:06:17.249Z,0.82
2022-12-05T09:08:50.730Z,0.89
2022-12-05T09:11:25.416Z,0.96
2022-12-05T09:14:00.325Z,1.03
2022-12-05T09:16:38.207Z,1.15
2022-12-05T09:19:15.875Z,1.29
2022-12-05T09:21:49.728Z,1.38
2022-12-05T09:24:23.007Z,1.43
2022-12-05T09:26:56.068Z,1.45
2022-12-05T09:29:29.913Z,1.42
2022-12-05T09:32:03.304Z,1.38
2022-12-05T09:34:35.973Z,1.38
2022-12-05T09:37:37.449Z,1.40
2022-12-05T09:40:05.644Z,1.33
2022-12-05T09:43:00.693Z,1.30
2022-12-05T09:45:39.323Z,1.31
2022-12-05T09:48:17.307Z,1.33
2022-12-05T09:50:59.393Z,1.42
2022-12-05T09:53:34.724Z,1.50
2022-12-05T09:56:17.575Z,1.59
2022-12-05T09:58:52.224Z,1.59
2022-12-05T10:01:35.178Z,1.70
2022-12-05T10:04:35.696Z,1.70
2022-12-05T10:07:17.823Z,1.70
2022-12-05T10:10:06.322Z,1.68
2022-12-05T10:12:50.084Z,1.81
2022-12-05T10:15:31.434Z,1.84
2022-12-05T10:18:15.696Z,1.78
2022-12-05T10:20:56.768Z,1.90
2022-12-05T10:26:32.750Z,2.17
2022-12-05T10:29:14.493Z,2.35
2022-12-05T10:31:50.103Z,2.42
2022-12-05T10:34:31.545Z,2.56
2022-12-05T10:37:11.644Z,2.76
2022-12-05T10:39:45.073Z,3.03
2022-12-05T10:42:22.120Z,3.27
2022-12-05T10:45:00.222Z,3.43
2022-12-05T10:47:33.794Z,3.62
2022-12-05T10:50:19.695Z,3.69
2022-12-05T10:52:53.584Z,3.80
2022-12-05T10:55:30.678Z,3.91
2022-12-05T10:58:18.097Z,3.97
2022-12-05T11:00:54.279Z,4.03
2022-12-05T11:03:36.675Z,4.08
2022-12-05T11:06:21.305Z,4.12
2022-12-05T11:09:06.426Z,4.17
2022-12-05T11:11:39.305Z,4.14
2022-12-05T11:14:25.795Z,4.18
2022-12-05T11:17:02.703Z,4.28
2022-12-05T11:19:39.387Z,4.30
2022-12-05T11:22:20.531Z,4.39
2022-12-05T11:24:52.982Z,4.40
2022-12-05T11:27:32.883Z,4.33
2022-12-05T11:30:20.684Z,4.34
2022-12-05T11:33:12.291Z,4.31
2022-12-05T11:35:45.031Z,4.30
2022-12-05T11:38:21.403Z,4.34
2022-12-05T11:41:00.849Z,4.31
2022-12-05T11:43:51.314Z,4.41
2022-12-05T11:46:35.069Z,4.46
2022-12-05T11:49:34.034Z,4.48
2022-12-05T11:52:15.334Z,4.48
2022-12-05T11:55:05.641Z,4.49
2022-12-05T11:58:00.034Z,4.50
2022-12-05T12:00:39.801Z,4.45
2022-12-05T12:03:47.234Z,4.49
2022-12-05T12:06:31.293Z,4.57
2022-12-05T12:09:18.883Z,4.63
2022-12-05T12:12:00.613Z,4.69
2022-12-05T12:14:43.204Z,4.70
2022-12-05T12:17:24.064Z,4.78
2022-12-05T12:20:20.364Z,4.82
2022-12-05T12:23:07.534Z,4.77
2022-12-05T12:25:49.644Z,4.76
2022-12-05T12:28:36.874Z,4.72
2022-12-05T12:31:30.774Z,4.75
2022-12-05T12:34:16.585Z,4.77
2022-12-05T12:36:56.161Z,4.81
2022-12-05T12:39:44.734Z,4.81
2022-12-05T12:42:29.285Z,4.84
2022-12-05T12:45:31.434Z,4.81
2022-12-05T12:48:16.900Z,4.70
2022-12-05T12:50:53.333Z,4.67
2022-12-05T12:53:56.376Z,4.70
2022-12-05T12:56:44.683Z,4.77
2022-12-05T12:59:48.966Z,4.83
2022-12-05T13:02:28.393Z,4.83
2022-12-05T13:05:09.233Z,4.84
2022-12-05T13:07:47.548Z,4.87
2022-12-05T13:10:33.834Z,4.96
2022-12-05T13:13:08.424Z,4.99
2022-12-05T13:15:45.164Z,4.99
2022-12-05T13:18:20.695Z,5.07
2022-12-05T13:20:56.363Z,5.13
2022-12-05T13:23:33.221Z,5.14
2022-12-05T13:26:12.344Z,5.07
2022-12-05T13:28:53.096Z,4.99
2022-12-05T13:31:39.254Z,4.93
2022-12-05T13:34:47.102Z,4.89
2022-12-05T13:37:46.483Z,4.79
2022-12-05T13:40:49.174Z,4.72
2022-12-05T13:43:25.236Z,4.68
2022-12-05T13:46:09.165Z,4.68
2022-12-05T13:48:46.417Z,4.69
2022-12-05T13:51:33.034Z,4.65
2022-12-05T13:54:13.273Z,4.64
2022-12-05T13:56:58.963Z,4.71
2022-12-05T14:00:06.604Z,4.80
2022-12-05T14:02:56.632Z,4.83
2022-12-05T14:05:47.135Z,4.90
2022-12-05T14:08:58.846Z,4.92
2022-12-05T14:11:33.560Z,4.87
2022-12-05T14:14:10.155Z,4.90
2022-12-05T14:16:47.942Z,4.89
2022-12-05T14:20:05.497Z,4.91
2022-12-05T14:22:56.953Z,4.95
2022-12-05T14:25:59.676Z,5.00
2022-12-05T14:28:56.259Z,4.98
2022-12-05T14:31:44.734Z,4.88
2022-12-05T14:34:27.078Z,4.84
2022-12-05T14:37:03.226Z,4.90
2022-12-05T14:39:41.375Z,4.92
2022-12-05T14:42:27.404Z,4.94
2022-12-05T14:45:03.750Z,4.88
2022-12-05T14:47:39.594Z,4.82
2022-12-05T14:50:40.231Z,4.81
2022-12-05T14:53:32.898Z,4.80
2022-12-05T14:56:19.327Z,4.79
2022-12-05T14:58:57.437Z,4.66
2022-12-05T15:01:36.865Z,4.61
2022-12-05T15:04:19.232Z,4.64
2022-12-05T15:06:58.234Z,4.66
2022-12-05T15:09:49.257Z,4.69
2022-12-05T15:12:25.071Z,4.73
2022-12-05T15:15:09.623Z,4.79
2022-12-05T15:17:50.444Z,4.83
2022-12-05T15:20:38.506Z,4.85
2022-12-05T15:23:42.224Z,4.83
2022-12-05T15:29:25.713Z,4.87
2022-12-05T15:32:03.314Z,4.85
2022-12-05T15:34:42.337Z,4.78
2022-12-05T15:37:18.995Z,4.74
2022-12-05T15:39:57.135Z,4.74
2022-12-05T15:42:31.418Z,4.78
2022-12-05T15:45:25.905Z,4.81
2022-12-05T15:48:18.448Z,4.82
2022-12-05T15:50:56.212Z,4.84
2022-12-05T15:53:33.683Z,4.79
2022-12-05T15:56:13.211Z,4.74
2022-12-05T15:58:51.132Z,4.63
2022-12-05T16:01:26.949Z,4.52
2022-12-05T16:04:01.832Z,4.53
2022-12-05T16:06:39.055Z,4.52
2022-12-05T16:09:16.733Z,4.54
2022-12-05T16:11:57.983Z,4.56
2022-12-05T16:14:59.001Z,4.56
2022-12-05T16:17:30.701Z,4.57
2022-12-05T16:20:31.325Z,4.51
2022-12-05T16:23:06.243Z,4.43
2022-12-05T16:25:39.953Z,4.39
2022-12-05T16:28:23.575Z,4.33
2022-12-05T16:31:05.610Z,4.31
2022-12-05T16:33:43.318Z,4.28
2022-12-05T16:36:16.963Z,4.26
2022-12-05T16:38:52.083Z,4.31
2022-12-05T16:41:33.874Z,4.32
2022-12-05T16:44:16.166Z,4.35
2022-12-05T16:46:51.257Z,4.35
2022-12-05T16:49:44.297Z,4.32
2022-12-05T16:52:24.625Z,4.27
2022-12-05T16:54:57.910Z,4.25
2022-12-05T16:57:31.015Z,4.29
2022-12-05T17:00:06.609Z,4.30
2022-12-05T17:02:39.974Z,4.29
2022-12-05T17:05:20.674Z,4.34
2022-12-05T17:07:53.477Z,4.31
2022-12-05T17:10:26.835Z,4.25
2022-12-05T17:13:03.208Z,4.28
2022-12-05T17:15:36.665Z,4.27
2022-12-05T17:18:16.532Z,4.28
2022-12-05T17:20:51.914Z,4.30
2022-12-05T17:23:25.600Z,4.27
2022-12-05T17:25:56.914Z,4.22
2022-12-05T17:28:29.325Z,4.16
2022-12-05T17:31:02.238Z,4.18
2022-12-05T17:33:36.744Z,4.22
2022-12-05T17:36:22.096Z,4.24
2022-12-05T17:38:57.516Z,4.24
2022-12-05T17:41:31.833Z,4.24
2022-12-05T17:44:05.884Z,4.23
2022-12-05T17:46:42.866Z,4.23
2022-12-05T17:49:17.134Z,4.22
2022-12-05T17:52:20.527Z,4.22
2022-12-05T17:54:44.645Z,4.18
2022-12-05T17:57:17.415Z,4.18
2022-12-05T17:59:50.657Z,4.17
2022-12-05T18:02:23.885Z,4.13
2022-12-05T18:04:57.033Z,4.11
2022-12-05T18:07:30.565Z,4.03
2022-12-05T18:10:08.238Z,4.00
2022-12-05T18:12:47.347Z,4.00
2022-12-05T18:15:20.892Z,4.00
2022-12-05T18:17:51.773Z,4.00
2022-12-05T18:20:25.452Z,3.89
2022-12-05T18:22:58.144Z,3.89
2022-12-05T18:25:32.231Z,3.90
2022-12-05T18:28:04.909Z,3.92
2022-12-05T18:30:37.839Z,3.87
2022-12-05T18:33:11.223Z,3.89
2022-12-05T18:35:46.933Z,3.88
2022-12-05T18:38:24.974Z,3.90
2022-12-05T18:41:10.306Z,3.85
2022-12-05T18:43:48.233Z,3.83
2022-12-05T18:46:25.145Z,3.85
2022-12-05T18:49:03.635Z,3.85
2022-12-05T18:51:41.755Z,3.82
2022-12-05T18:54:16.484Z,3.80
2022-12-05T18:56:57.074Z,3.80
2022-12-05T18:59:33.299Z,3.82
2022-12-05T19:02:29.019Z,3.78
2022-12-05T19:05:09.554Z,3.70
2022-12-05T19:07:48.647Z,3.71
2022-12-05T19:10:24.015Z,3.65
2022-12-05T19:13:04.244Z,3.62
2022-12-05T19:15:37.963Z,3.60
2022-12-05T19:18:12.605Z,3.57
2022-12-05T19:20:53.011Z,3.54
2022-12-05T19:23:25.713Z,3.54
2022-12-05T19:26:03.273Z,3.55
2022-12-05T19:28:39.464Z,3.59
2022-12-05T19:31:17.461Z,3.61
2022-12-05T19:33:51.934Z,3.65
2022-12-05T19:36:25.798Z,3.67
2022-12-05T19:38:59.833Z,3.62
2022-12-05T19:41:36.326Z,3.60
2022-12-05T19:44:09.779Z,3.62
2022-12-05T19:46:45.743Z,3.62
2022-12-05T19:49:19.311Z,3.58
2022-12-05T19:51:55.004Z,3.55
2022-12-05T19:54:28.054Z,3.58
2022-12-05T19:57:03.029Z,3.62
2022-12-05T19:59:35.786Z,3.62
2022-12-05T20:02:08.852Z,3.64
2022-12-05T20:04:41.354Z,3.63
2022-12-05T20:07:18.313Z,3.64
2022-12-05T20:09:51.326Z,3.65
2022-12-05T20:12:24.024Z,3.62
2022-12-05T20:14:59.154Z,3.59
2022-12-05T20:17:33.604Z,3.47
2022-12-05T20:20:07.457Z,3.47
2022-12-05T20:22:38.264Z,3.48
2022-12-05T20:25:16.886Z,3.44
2022-12-05T20:27:50.184Z,3.46
2022-12-05T20:30:23.400Z,3.49
2022-12-05T20:32:56.400Z,3.51
2022-12-05T20:35:32.504Z,3.53
2022-12-05T20:38:07.588Z,3.52
2022-12-05T20:40:40.471Z,3.53
2022-12-05T20:43:14.903Z,3.56
2022-12-05T20:45:56.021Z,3.54
2022-12-05T20:48:29.317Z,3.55
2022-12-05T20:51:07.956Z,3.53
2022-12-05T20:53:43.693Z,3.51
2022-12-05T20:56:20.242Z,3.52
2022-12-05T20:58:54.834Z,3.52
2022-12-05T21:01:30.011Z,3.52
2022-12-05T21:04:05.222Z,3.48
2022-12-05T21:06:40.773Z,3.50
2022-12-05T21:09:26.910Z,3.50
2022-12-05T21:12:02.181Z,3.51
2022-12-05T21:14:35.672Z,3.49
2022-12-05T21:17:08.345Z,3.41
2022-12-05T21:19:42.345Z,3.43
2022-12-05T21:22:15.454Z,3.43
2022-12-05T21:24:48.183Z,3.45
2022-12-05T21:27:23.373Z,3.42
2022-12-05T21:29:56.290Z,3.38
2022-12-05T21:32:29.363Z,3.38
2022-12-05T21:35:03.793Z,3.35
2022-12-05T21:37:38.655Z,3.24
2022-12-05T21:40:13.055Z,3.23
2022-12-05T21:42:45.669Z,3.27
2022-12-05T21:45:21.172Z,3.28
2022-12-05T21:47:54.313Z,3.27
2022-12-05T21:50:28.312Z,3.26
2022-12-05T21:53:01.269Z,3.25
2022-12-05T21:55:34.293Z,3.25
2022-12-05T21:58:06.922Z,3.25
2022-12-05T22:00:42.629Z,3.27
2022-12-05T22:03:17.682Z,3.28
2022-12-05T22:05:51.283Z,3.28
2022-12-05T22:08:24.141Z,3.30
2022-12-05T22:10:56.682Z,3.30
2022-12-05T22:13:32.692Z,3.23
2022-12-05T22:16:07.157Z,3.22
2022-12-05T22:18:40.033Z,3.22
2022-12-05T22:21:15.185Z,3.22
2022-12-05T22:23:49.075Z,3.23
2022-12-05T22:26:24.289Z,3.23
2022-12-05T22:28:59.334Z,3.25
2022-12-05T22:31:32.105Z,3.23
2022-12-05T22:34:05.954Z,3.23
2022-12-05T22:36:38.634Z,3.26
2022-12-05T22:39:13.236Z,3.25
2022-12-05T22:41:49.682Z,3.19
2022-12-05T22:44:22.615Z,3.15
2022-12-05T22:46:55.552Z,3.12
2022-12-05T22:49:28.240Z,3.13
2022-12-05T22:52:01.304Z,3.15
2022-12-05T22:54:34.175Z,3.13
2022-12-05T22:57:06.962Z,3.15
2022-12-05T22:59:39.737Z,3.17
2022-12-05T23:02:12.523Z,3.20
2022-12-05T23:04:45.693Z,3.19
2022-12-05T23:07:19.945Z,3.17
2022-12-05T23:09:52.734Z,3.18
2022-12-05T23:12:25.328Z,3.19
2022-12-05T23:14:58.653Z,3.18
2022-12-05T23:17:31.327Z,3.19
2022-12-05T23:20:04.218Z,3.19
2022-12-05T23:22:37.330Z,3.19
2022-12-05T23:25:13.035Z,3.18
2022-12-05T23:27:45.767Z,3.20
2022-12-05T23:30:20.125Z,3.20
2022-12-05T23:32:52.937Z,3.18
2022-12-05T23:35:25.678Z,3.19
2022-12-05T23:37:58.564Z,3.18
2022-12-05T23:40:31.139Z,3.20
2022-12-05T23:43:03.809Z,3.19
2022-12-05T23:45:36.252Z,3.18
2022-12-05T23:48:09.527Z,3.12
2022-12-05T23:50:42.108Z,3.13
2022-12-05T23:53:14.984Z,3.12
2022-12-05T23:55:47.739Z,3.13
2022-12-05T23:58:20.706Z,3.14
